Time;durP1;ratioP1;P1;durP2;ratioP2;P2;SDS_P1;SDS_P2;PMS_P1;PMS_P2;Temp;Humidity;BMP_temperature;BMP_pressure;BME280_temperature;BME280_humidity;BME280_pressure;Samples;Min_cycle;Max_cycle;Signal;HPM_P1;HPM_P2
2024/01/29 00:00:09;;;;;;;9.00;5.28;;;7.00;99.90;;;;;;5080065;28;20201;-41
2024/01/29 00:02:37;;;;;;;9.73;5.50;;;6.90;99.90;;;;;;5084329;28;20658;-46
2024/01/29 00:05:03;;;;;;;9.30;5.20;;;6.90;99.90;;;;;;5084573;28;20268;-41
2024/01/29 00:07:29;;;;;;;9.25;5.28;;;6.90;99.90;;;;;;5085398;28;20190;-42
2024/01/29 00:09:55;;;;;;;9.50;4.97;;;6.90;99.90;;;;;;5084107;28;20209;-41
2024/01/29 00:12:21;;;;;;;8.18;4.97;;;6.90;99.90;;;;;;5083863;28;20305;-43
2024/01/29 00:14:47;;;;;;;7.15;4.75;;;6.90;99.90;;;;;;5083992;28;20186;-43
2024/01/29 00:17:13;;;;;;;10.43;4.97;;;6.90;99.90;;;;;;5084332;28;20601;-38
2024/01/29 00:19:38;;;;;;;8.48;4.93;;;6.90;99.90;;;;;;5084201;28;20584;-40
2024/01/29 00:22:04;;;;;;;7.88;5.03;;;6.90;99.90;;;;;;5084782;28;20185;-45
2024/01/29 00:24:30;;;;;;;7.63;4.85;;;6.80;99.90;;;;;;5083989;28;20264;-40
2024/01/29 00:26:56;;;;;;;9.82;4.97;;;6.90;99.90;;;;;;5084357;28;20204;-41
2024/01/29 00:29:22;;;;;;;6.75;4.57;;;6.90;99.90;;;;;;5084089;28;21041;-41
2024/01/29 00:31:48;;;;;;;9.70;5.30;;;6.80;99.90;;;;;;5082031;28;20228;-41
2024/01/29 00:34:14;;;;;;;7.80;4.85;;;6.80;99.90;;;;;;5082870;28;20205;-48
2024/01/29 00:36:40;;;;;;;10.55;5.40;;;6.90;99.90;;;;;;5083309;28;20201;-43
2024/01/29 00:39:09;;;;;;;8.18;5.00;;;6.80;99.90;;;;;;5082385;28;20283;-43
2024/01/29 00:41:36;;;;;;;10.35;5.00;;;6.80;99.90;;;;;;5081848;28;20186;-40
2024/01/29 00:44:02;;;;;;;9.07;5.28;;;6.80;99.90;;;;;;5084312;28;20190;-43
2024/01/29 00:46:28;;;;;;;8.93;5.63;;;6.80;99.90;;;;;;5083654;28;20188;-41
2024/01/29 00:48:54;;;;;;;7.13;4.97;;;6.80;99.90;;;;;;5083522;28;20243;-42
2024/01/29 00:51:20;;;;;;;10.10;4.97;;;6.80;99.90;;;;;;5084018;28;20194;-43
2024/01/29 00:53:47;;;;;;;8.98;5.10;;;6.80;99.90;;;;;;5083453;28;20294;-39
2024/01/29 00:56:13;;;;;;;7.43;4.68;;;6.70;99.90;;;;;;5082584;28;20578;-45
2024/01/29 00:58:43;;;;;;;7.85;5.22;;;6.70;99.90;;;;;;5083640;28;20224;-37
2024/01/29 01:01:12;;;;;;;6.85;4.40;;;6.70;99.90;;;;;;5083773;28;20194;-40
2024/01/29 01:03:38;;;;;;;10.13;5.60;;;6.70;99.90;;;;;;5083589;28;20213;-40
2024/01/29 01:06:03;;;;;;;9.77;5.07;;;6.70;99.90;;;;;;5083648;28;20673;-41
2024/01/29 01:08:29;;;;;;;8.60;4.72;;;6.60;99.90;;;;;;5083818;28;20186;-45
2024/01/29 01:10:55;;;;;;;7.68;5.38;;;6.60;99.90;;;;;;5065232;28;20284;-41
2024/01/29 01:13:21;;;;;;;7.60;4.97;;;6.60;99.90;;;;;;5082720;28;20628;-40
2024/01/29 01:15:47;;;;;;;9.00;5.00;;;6.50;99.90;;;;;;5083534;28;20202;-44
2024/01/29 01:18:13;;;;;;;6.68;4.60;;;6.50;99.90;;;;;;5082274;28;20194;-40
2024/01/29 01:20:39;;;;;;;6.85;5.00;;;6.50;99.90;;;;;;5083025;28;20201;-41
2024/01/29 01:23:05;;;;;;;10.02;5.30;;;6.50;99.90;;;;;;5082777;28;20638;-38
2024/01/29 01:25:31;;;;;;;6.55;4.75;;;6.40;99.90;;;;;;5082129;28;20198;-43
2024/01/29 01:27:57;;;;;;;9.95;5.13;;;6.40;99.90;;;;;;5082713;28;20224;-48
2024/01/29 01:30:23;;;;;;;10.52;5.13;;;6.40;99.90;;;;;;5082078;28;20178;-43
2024/01/29 01:32:49;;;;;;;8.40;4.90;;;6.30;99.90;;;;;;5083138;28;20214;-42
2024/01/29 01:35:16;;;;;;;7.53;5.43;;;6.30;99.90;;;;;;5083087;28;20231;-39
2024/01/29 01:37:41;;;;;;;7.78;4.88;;;6.30;99.90;;;;;;5063161;28;20186;-37
2024/01/29 01:40:08;;;;;;;8.05;4.88;;;6.30;99.90;;;;;;5082496;28;20565;-45
2024/01/29 01:42:37;;;;;;;8.45;4.93;;;6.30;99.90;;;;;;5082699;28;20623;-41
2024/01/29 01:45:03;;;;;;;8.68;5.72;;;6.20;99.90;;;;;;5064070;28;20273;-43
2024/01/29 01:47:30;;;;;;;6.38;4.70;;;6.20;99.90;;;;;;5082799;28;20875;-41
2024/01/29 01:49:55;;;;;;;10.45;5.00;;;6.20;99.90;;;;;;5081711;28;20284;-41
2024/01/29 01:52:21;;;;;;;7.90;4.82;;;6.20;99.90;;;;;;5080238;28;20220;-38
2024/01/29 01:54:48;;;;;;;9.05;4.97;;;6.20;99.90;;;;;;5082491;28;20182;-40
2024/01/29 01:57:14;;;;;;;9.43;5.18;;;6.20;99.90;;;;;;5080792;28;20215;-40
2024/01/29 01:59:40;;;;;;;8.68;5.18;;;6.20;99.90;;;;;;5082075;28;20594;-40
2024/01/29 02:02:07;;;;;;;6.90;4.70;;;6.20;99.90;;;;;;5081941;28;20251;-39
2024/01/29 02:04:33;;;;;;;10.93;5.25;;;6.10;99.90;;;;;;5082547;28;20200;-45
2024/01/29 02:06:59;;;;;;;9.02;5.80;;;6.20;99.90;;;;;;5081086;28;20194;-40
2024/01/29 02:09:26;;;;;;;9.02;5.03;;;6.10;99.90;;;;;;5048628;28;20540;-43
2024/01/29 02:11:52;;;;;;;8.35;5.28;;;6.10;99.90;;;;;;5032688;28;20267;-43
2024/01/29 02:14:19;;;;;;;10.90;5.07;;;6.10;99.90;;;;;;5046955;28;20323;-41
2024/01/29 02:16:44;;;;;;;7.93;4.80;;;6.10;99.90;;;;;;5081816;28;20314;-39
2024/01/29 02:19:15;;;;;;;12.85;5.18;;;6.10;99.90;;;;;;5082235;28;20240;-39
2024/01/29 02:21:42;;;;;;;8.50;5.10;;;6.10;99.90;;;;;;5081534;28;20292;-41
2024/01/29 02:24:08;;;;;;;9.70;5.38;;;6.00;99.90;;;;;;5080971;28;20633;-41
2024/01/29 02:26:34;;;;;;;6.45;4.65;;;6.00;99.90;;;;;;5081752;28;20204;-40
2024/01/29 02:29:00;;;;;;;8.95;5.45;;;6.00;99.90;;;;;;5081845;28;20664;-42
2024/01/29 02:31:26;;;;;;;7.93;4.80;;;6.00;99.90;;;;;;5081494;28;20375;-41
2024/01/29 02:33:52;;;;;;;8.23;5.20;;;6.00;99.90;;;;;;5081168;28;20558;-38
2024/01/29 02:36:18;;;;;;;8.45;5.63;;;5.90;99.90;;;;;;5081459;28;20182;-40
2024/01/29 02:38:43;;;;;;;10.15;5.20;;;5.90;99.90;;;;;;5080392;28;20607;-43
2024/01/29 02:41:09;;;;;;;10.82;5.45;;;5.90;99.90;;;;;;5058229;28;20225;-44
2024/01/29 02:43:35;;;;;;;9.73;5.20;;;5.90;99.90;;;;;;5081056;28;20190;-41
2024/01/29 02:46:01;;;;;;;8.30;5.25;;;5.80;99.90;;;;;;5081567;28;20193;-41
2024/01/29 02:48:28;;;;;;;7.75;5.03;;;5.80;99.90;;;;;;5063266;28;20293;-42
2024/01/29 02:50:54;;;;;;;8.27;5.38;;;5.80;99.90;;;;;;5080930;28;20296;-42
2024/01/29 02:53:20;;;;;;;7.63;5.20;;;5.80;99.90;;;;;;5080868;28;20274;-38
2024/01/29 02:55:46;;;;;;;9.23;5.38;;;5.80;99.90;;;;;;5081136;28;20239;-42
2024/01/29 02:58:12;;;;;;;8.30;5.28;;;5.80;99.90;;;;;;5081283;28;20221;-44
2024/01/29 03:00:38;;;;;;;8.75;5.40;;;5.80;99.90;;;;;;5079671;28;20186;-38
2024/01/29 03:03:04;;;;;;;8.05;5.40;;;5.70;99.90;;;;;;5080773;28;20190;-42
2024/01/29 03:05:30;;;;;;;8.75;5.50;;;5.70;99.90;;;;;;5080934;28;20296;-46
2024/01/29 03:07:55;;;;;;;10.43;5.50;;;5.70;99.90;;;;;;5081036;28;20280;-42
2024/01/29 03:10:22;;;;;;;6.78;5.13;;;5.70;99.90;;;;;;5081243;28;20672;-41
2024/01/29 03:12:47;;;;;;;8.30;5.47;;;5.70;99.90;;;;;;5080929;28;20232;-41
2024/01/29 03:15:13;;;;;;;9.90;5.65;;;5.70;99.90;;;;;;5080848;28;20186;-44
2024/01/29 03:17:39;;;;;;;8.95;5.18;;;5.70;99.90;;;;;;5080825;28;20230;-41
2024/01/29 03:20:05;;;;;;;10.55;5.50;;;5.60;99.90;;;;;;5079119;28;20662;-40
2024/01/29 03:22:31;;;;;;;8.70;5.35;;;5.70;99.90;;;;;;5081141;28;20686;-43
2024/01/29 03:24:58;;;;;;;11.13;5.57;;;5.60;99.90;;;;;;5062054;28;20194;-38
2024/01/29 03:27:24;;;;;;;10.20;5.45;;;5.60;99.90;;;;;;5078321;28;20294;-39
2024/01/29 03:29:50;;;;;;;7.32;5.55;;;5.60;99.90;;;;;;5080211;28;20622;-46
2024/01/29 03:32:16;;;;;;;9.38;5.70;;;5.60;99.90;;;;;;5078842;28;20689;-45
2024/01/29 03:34:42;;;;;;;8.73;5.32;;;5.60;99.90;;;;;;5081340;28;20194;-41
2024/01/29 03:37:08;;;;;;;7.18;5.35;;;5.60;99.90;;;;;;5085246;28;20169;-40
2024/01/29 03:39:34;;;;;;;9.57;5.57;;;5.60;99.90;;;;;;5086519;28;20225;-38
2024/01/29 03:42:00;;;;;;;11.23;5.93;;;5.60;99.90;;;;;;5087139;28;20185;-41
2024/01/29 03:44:26;;;;;;;8.88;5.53;;;5.60;99.90;;;;;;5087162;28;20571;-39
2024/01/29 03:46:52;;;;;;;9.02;5.97;;;5.60;99.90;;;;;;5087243;28;20645;-41
2024/01/29 03:49:18;;;;;;;9.38;5.72;;;5.60;99.90;;;;;;5087322;28;20221;-40
2024/01/29 03:51:43;;;;;;;10.93;5.65;;;5.60;99.90;;;;;;5085849;28;20328;-37
2024/01/29 03:54:09;;;;;;;11.05;5.30;;;5.60;99.90;;;;;;5087173;28;20519;-38
2024/01/29 03:56:35;;;;;;;9.10;5.70;;;5.50;99.90;;;;;;5087448;28;20597;-42
2024/01/29 03:59:02;;;;;;;14.20;6.20;;;5.50;99.90;;;;;;5087387;28;20197;-39
2024/01/29 04:01:30;;;;;;;8.43;5.43;;;5.50;99.90;;;;;;5086183;28;20186;-42
2024/01/29 04:03:56;;;;;;;9.48;5.63;;;5.50;99.90;;;;;;5086015;28;20216;-40
2024/01/29 04:06:22;;;;;;;9.85;5.55;;;5.50;99.90;;;;;;5086160;28;20224;-42
2024/01/29 04:08:48;;;;;;;11.60;6.07;;;5.50;99.90;;;;;;5085927;28;20198;-42
2024/01/29 04:11:14;;;;;;;8.23;6.00;;;5.50;99.90;;;;;;5087024;28;20189;-40
2024/01/29 04:13:40;;;;;;;9.85;5.80;;;5.50;99.90;;;;;;5087348;28;20185;-42
2024/01/29 04:16:12;;;;;;;9.45;6.05;;;5.40;99.90;;;;;;5067750;28;20193;-48
2024/01/29 04:18:39;;;;;;;11.25;6.00;;;5.40;99.90;;;;;;5086531;28;20174;-39
2024/01/29 04:21:06;;;;;;;11.15;6.22;;;5.40;99.90;;;;;;5087069;28;20195;-39
2024/01/29 04:23:35;;;;;;;11.48;5.80;;;5.40;99.90;;;;;;5084893;28;20194;-42
2024/01/29 04:26:02;;;;;;;10.73;6.07;;;5.40;99.90;;;;;;5086691;28;20217;-39
2024/01/29 04:28:28;;;;;;;9.27;6.28;;;5.40;99.90;;;;;;5086412;28;20549;-43
2024/01/29 04:30:54;;;;;;;11.05;6.13;;;5.40;99.90;;;;;;5086459;28;20763;-39
2024/01/29 04:33:20;;;;;;;13.57;6.45;;;5.40;99.90;;;;;;5086938;28;20208;-46
2024/01/29 04:35:45;;;;;;;11.40;6.20;;;5.30;99.90;;;;;;5086413;28;20181;-42
2024/01/29 04:38:11;;;;;;;11.63;6.28;;;5.30;99.90;;;;;;5085334;28;20243;-46
2024/01/29 04:40:40;;;;;;;11.18;6.30;;;5.30;99.90;;;;;;5085314;28;20225;-41
2024/01/29 04:43:06;;;;;;;9.75;6.15;;;5.30;99.90;;;;;;5086358;28;20638;-46
2024/01/29 04:45:32;;;;;;;11.77;6.53;;;5.30;99.90;;;;;;5087585;28;20239;-39
2024/01/29 04:47:58;;;;;;;9.88;6.18;;;5.30;99.90;;;;;;5082677;28;20190;-39
2024/01/29 04:50:24;;;;;;;8.85;6.10;;;5.30;99.90;;;;;;5083881;28;20182;-41
2024/01/29 04:52:50;;;;;;;11.43;6.07;;;5.30;99.90;;;;;;5083198;28;20223;-43
2024/01/29 04:55:16;;;;;;;10.02;6.60;;;5.30;99.90;;;;;;5082563;28;20190;-41
2024/01/29 04:57:41;;;;;;;16.60;6.50;;;5.30;99.90;;;;;;5083155;28;20221;-39
2024/01/29 05:00:11;;;;;;;13.32;6.90;;;5.20;99.90;;;;;;5083648;28;20283;-40
2024/01/29 05:02:36;;;;;;;10.60;6.20;;;5.30;99.90;;;;;;5081667;28;20236;-40
2024/01/29 05:05:03;;;;;;;11.18;6.97;;;5.20;99.90;;;;;;5083592;28;20190;-37
2024/01/29 05:07:28;;;;;;;13.57;6.55;;;5.30;99.90;;;;;;5083688;28;20186;-40
2024/01/29 05:09:54;;;;;;;12.90;6.60;;;5.20;99.90;;;;;;5080690;28;20239;-40
2024/01/29 05:12:20;;;;;;;9.80;6.65;;;5.30;99.90;;;;;;5082070;28;20205;-43
2024/01/29 05:14:46;;;;;;;9.85;6.40;;;5.20;99.90;;;;;;5083307;28;20280;-44
2024/01/29 05:17:12;;;;;;;10.02;6.38;;;5.30;99.90;;;;;;5083069;28;20186;-43
2024/01/29 05:19:43;;;;;;;14.18;6.80;;;5.30;99.90;;;;;;5083352;28;20276;-40
2024/01/29 05:22:09;;;;;;;10.65;6.78;;;5.30;99.90;;;;;;5082970;28;20661;-44
2024/01/29 05:24:35;;;;;;;11.35;6.85;;;5.30;99.90;;;;;;5082875;28;20218;-39
2024/01/29 05:27:02;;;;;;;8.90;6.53;;;5.30;99.90;;;;;;5082816;28;20193;-40
2024/01/29 05:29:27;;;;;;;11.63;6.93;;;5.30;99.90;;;;;;5082904;28;20286;-40
2024/01/29 05:31:53;;;;;;;10.50;7.15;;;5.40;99.90;;;;;;5082878;28;20740;-45
2024/01/29 05:34:19;;;;;;;9.48;6.75;;;5.40;99.90;;;;;;5080948;28;20323;-42
2024/01/29 05:36:45;;;;;;;9.95;6.70;;;5.40;99.90;;;;;;5081336;28;20185;-41
2024/01/29 05:39:11;;;;;;;11.77;6.38;;;5.40;99.90;;;;;;5082204;28;20185;-40
2024/01/29 05:41:37;;;;;;;10.55;6.60;;;5.50;99.90;;;;;;5082309;28;20225;-46
2024/01/29 05:44:03;;;;;;;11.13;6.93;;;5.50;99.90;;;;;;5082188;28;20190;-37
2024/01/29 05:46:29;;;;;;;10.45;7.13;;;5.50;99.90;;;;;;5082986;28;20204;-42
2024/01/29 05:48:55;;;;;;;10.00;6.55;;;5.50;99.90;;;;;;5082595;28;20300;-41
2024/01/29 05:51:21;;;;;;;9.90;6.72;;;5.60;99.90;;;;;;5081333;28;20267;-47
2024/01/29 05:53:46;;;;;;;12.90;6.82;;;5.60;99.90;;;;;;5080108;28;20193;-47
2024/01/29 05:56:13;;;;;;;11.75;7.10;;;5.60;99.90;;;;;;5063507;28;20262;-44
2024/01/29 05:58:42;;;;;;;8.63;6.20;;;5.60;99.90;;;;;;5080901;28;20573;-42
2024/01/29 06:01:07;;;;;;;16.23;7.40;;;5.60;99.90;;;;;;5082024;28;20268;-44
2024/01/29 06:03:33;;;;;;;11.20;7.40;;;5.50;99.90;;;;;;5082339;28;20281;-47
2024/01/29 06:05:59;;;;;;;10.25;7.10;;;5.50;99.90;;;;;;5081378;28;20749;-42
2024/01/29 06:08:25;;;;;;;12.50;7.63;;;5.60;99.90;;;;;;5096731;27;20220;-44
2024/01/29 06:10:53;;;;;;;13.60;7.35;;;5.50;99.90;;;;;;5064191;28;20196;-39
2024/01/29 06:13:19;;;;;;;11.90;7.18;;;5.50;99.90;;;;;;5082441;28;20213;-41
2024/01/29 06:15:45;;;;;;;11.13;7.22;;;5.50;99.90;;;;;;5081959;28;20259;-44
2024/01/29 06:18:11;;;;;;;10.07;6.57;;;5.60;99.90;;;;;;5081005;28;20225;-48
2024/01/29 06:20:37;;;;;;;11.07;7.25;;;5.50;99.90;;;;;;5081756;28;20202;-40
2024/01/29 06:23:03;;;;;;;12.32;7.07;;;5.60;99.90;;;;;;5079689;28;20212;-43
2024/01/29 06:25:29;;;;;;;12.65;7.60;;;5.50;99.90;;;;;;5081296;28;20646;-47
2024/01/29 06:27:55;;;;;;;13.68;7.35;;;5.60;99.90;;;;;;5079578;28;20215;-45
2024/01/29 06:30:21;;;;;;;10.77;7.05;;;5.50;99.90;;;;;;5063171;28;20221;-40
2024/01/29 06:32:46;;;;;;;9.85;7.10;;;5.50;99.90;;;;;;5081110;28;20301;-42
2024/01/29 06:35:12;;;;;;;11.07;7.53;;;5.60;99.90;;;;;;5081712;28;20197;-40
2024/01/29 06:37:40;;;;;;;11.77;7.22;;;5.60;99.90;;;;;;5080458;28;20190;-44
2024/01/29 06:40:08;;;;;;;14.32;7.25;;;5.60;99.90;;;;;;5080104;28;20217;-44
2024/01/29 06:42:35;;;;;;;11.50;7.82;;;5.60;99.90;;;;;;5079750;28;20217;-40
2024/01/29 06:45:01;;;;;;;11.18;7.60;;;5.60;99.90;;;;;;5081694;28;20654;-43
2024/01/29 06:47:26;;;;;;;10.90;7.55;;;5.60;99.90;;;;;;5080735;28;20247;-43
2024/01/29 06:49:52;;;;;;;12.65;7.70;;;5.60;99.90;;;;;;5081259;28;20192;-41
2024/01/29 06:52:18;;;;;;;13.70;7.47;;;5.60;99.90;;;;;;5080702;28;20213;-40
2024/01/29 06:54:44;;;;;;;12.63;7.53;;;5.60;99.90;;;;;;5079657;28;20186;-44
2024/01/29 06:57:10;;;;;;;11.70;7.80;;;5.60;99.90;;;;;;5080145;28;20308;-40
2024/01/29 06:59:36;;;;;;;16.45;7.97;;;5.50;99.90;;;;;;5077984;28;20311;-48
2024/01/29 07:02:04;;;;;;;11.13;7.85;;;5.50;99.90;;;;;;5080124;28;20328;-44
2024/01/29 07:04:30;;;;;;;13.27;7.80;;;5.60;99.90;;;;;;5081079;28;20483;-43
2024/01/29 07:06:56;;;;;;;13.32;7.80;;;5.50;99.90;;;;;;5078683;28;20197;-39
2024/01/29 07:09:22;;;;;;;13.35;7.93;;;5.50;99.90;;;;;;5045974;28;20695;-41
2024/01/29 07:11:47;;;;;;;14.18;8.25;;;5.50;99.90;;;;;;5063086;28;20205;-46
2024/01/29 07:14:14;;;;;;;14.70;8.07;;;5.50;99.90;;;;;;5078793;28;20302;-39
2024/01/29 07:16:40;;;;;;;12.93;7.60;;;5.50;99.90;;;;;;5080566;28;20197;-45
2024/01/29 07:19:06;;;;;;;12.35;8.25;;;5.50;99.90;;;;;;5080104;28;20178;-43
2024/01/29 07:21:32;;;;;;;13.15;8.02;;;5.50;99.90;;;;;;5080423;28;20232;-41
2024/01/29 07:23:58;;;;;;;15.93;8.32;;;5.40;99.90;;;;;;5080855;28;20263;-42
2024/01/29 07:26:24;;;;;;;17.55;8.40;;;5.50;99.90;;;;;;5062272;28;20181;-43
2024/01/29 07:28:50;;;;;;;14.60;8.57;;;5.50;99.90;;;;;;5080765;28;20243;-40
2024/01/29 07:31:17;;;;;;;11.57;8.07;;;5.50;99.90;;;;;;5080657;28;20200;-44
2024/01/29 07:33:43;;;;;;;13.18;8.20;;;5.50;99.90;;;;;;5078619;28;20304;-52
2024/01/29 07:36:09;;;;;;;13.80;8.40;;;5.50;99.90;;;;;;5062876;28;20583;-44
2024/01/29 07:38:36;;;;;;;12.93;8.57;;;5.60;99.90;;;;;;5062198;28;20196;-42
2024/01/29 07:41:02;;;;;;;12.60;8.88;;;5.60;99.90;;;;;;5078723;28;20237;-45
2024/01/29 07:43:28;;;;;;;13.23;8.05;;;5.60;99.90;;;;;;5078872;28;20354;-44
2024/01/29 07:45:54;;;;;;;13.13;8.38;;;5.60;99.90;;;;;;5079960;28;20726;-39
2024/01/29 07:48:20;;;;;;;14.15;8.90;;;5.60;99.90;;;;;;5078477;28;20193;-40
2024/01/29 07:50:46;;;;;;;14.25;8.43;;;5.70;99.90;;;;;;5078814;28;20277;-45
2024/01/29 07:53:12;;;;;;;14.45;9.50;;;5.70;99.90;;;;;;5079795;28;21205;-44
2024/01/29 07:55:38;;;;;;;13.05;8.88;;;5.70;99.90;;;;;;5078338;28;20190;-41
2024/01/29 07:58:04;;;;;;;13.20;8.20;;;5.70;99.90;;;;;;5080278;28;20174;-42
2024/01/29 08:00:29;;;;;;;13.82;8.60;;;5.70;99.90;;;;;;5061597;28;20228;-41
2024/01/29 08:02:55;;;;;;;15.85;8.20;;;5.80;99.90;;;;;;5080602;28;20205;-40
2024/01/29 08:05:21;;;;;;;13.77;8.38;;;5.80;99.90;;;;;;5079546;28;20198;-40
2024/01/29 08:07:47;;;;;;;15.05;8.73;;;5.80;99.90;;;;;;5079377;28;20245;-47
2024/01/29 08:10:14;;;;;;;14.93;9.68;;;5.80;99.90;;;;;;5080924;28;20268;-40
2024/01/29 08:12:40;;;;;;;19.38;8.80;;;5.90;99.90;;;;;;5080181;28;21373;-45
2024/01/29 08:15:07;;;;;;;13.00;8.55;;;5.90;99.90;;;;;;5080767;28;20194;-40
2024/01/29 08:17:32;;;;;;;18.00;9.23;;;5.90;99.90;;;;;;5080533;28;20206;-41
2024/01/29 08:19:58;;;;;;;12.02;8.43;;;6.00;99.90;;;;;;5080685;28;20265;-44
2024/01/29 08:22:24;;;;;;;15.25;9.32;;;6.00;99.90;;;;;;5082148;28;20202;-44
2024/01/29 08:24:50;;;;;;;16.63;9.05;;;6.10;99.90;;;;;;5084165;28;20200;-40
2024/01/29 08:27:16;;;;;;;12.27;8.63;;;6.20;99.90;;;;;;5065920;28;20338;-41
2024/01/29 08:29:42;;;;;;;16.42;9.25;;;6.20;99.90;;;;;;5066012;28;20193;-44
2024/01/29 08:32:08;;;;;;;13.05;9.13;;;6.30;99.90;;;;;;5083854;28;20250;-46
2024/01/29 08:34:34;;;;;;;13.40;9.35;;;6.30;99.90;;;;;;5083116;28;20186;-45
2024/01/29 08:37:00;;;;;;;15.57;9.43;;;6.40;99.90;;;;;;5082499;28;20193;-45
2024/01/29 08:39:25;;;;;;;18.13;9.88;;;6.40;99.90;;;;;;5083535;28;20192;-42
2024/01/29 08:41:52;;;;;;;15.35;8.65;;;6.40;99.90;;;;;;5084169;28;20212;-41
2024/01/29 08:44:18;;;;;;;13.43;9.02;;;6.50;99.90;;;;;;5083376;28;20324;-42
2024/01/29 08:46:44;;;;;;;14.00;9.20;;;6.50;99.90;;;;;;5083753;28;20272;-42
2024/01/29 08:49:10;;;;;;;14.18;9.70;;;6.50;99.90;;;;;;5082580;28;20189;-42
2024/01/29 08:51:35;;;;;;;14.18;9.77;;;6.60;99.90;;;;;;5083225;28;20190;-45
2024/01/29 08:54:01;;;;;;;15.20;9.55;;;6.60;99.90;;;;;;5083477;28;20182;-42
2024/01/29 08:56:29;;;;;;;16.90;9.30;;;6.60;99.90;;;;;;5083439;28;20190;-43
2024/01/29 08:58:54;;;;;;;15.43;9.40;;;6.60;99.90;;;;;;5083615;28;20198;-43
2024/01/29 09:01:20;;;;;;;13.93;9.73;;;6.70;99.90;;;;;;5082476;28;20242;-44
2024/01/29 09:03:46;;;;;;;13.75;9.20;;;6.70;99.90;;;;;;5083850;28;20246;-44
2024/01/29 09:06:13;;;;;;;16.55;9.52;;;6.70;99.90;;;;;;5083584;28;20693;-44
2024/01/29 09:08:43;;;;;;;14.00;9.32;;;6.70;99.90;;;;;;5083578;28;20577;-42
2024/01/29 09:11:09;;;;;;;17.80;9.70;;;6.80;99.90;;;;;;5081755;28;20205;-40
2024/01/29 09:13:35;;;;;;;15.38;9.90;;;6.80;99.90;;;;;;5081863;28;20213;-39
2024/01/29 09:16:01;;;;;;;17.45;10.10;;;6.80;99.90;;;;;;5083613;28;20182;-46
2024/01/29 09:18:27;;;;;;;14.55;10.27;;;6.90;99.90;;;;;;5083042;28;20182;-45
2024/01/29 09:20:53;;;;;;;17.25;10.57;;;6.90;99.90;;;;;;5082251;28;20194;-46
2024/01/29 09:23:19;;;;;;;17.05;10.65;;;6.90;99.90;;;;;;5082947;28;20613;-44
2024/01/29 09:25:44;;;;;;;17.10;10.40;;;6.90;99.90;;;;;;5083476;28;20606;-41
2024/01/29 09:28:10;;;;;;;16.83;10.52;;;7.00;99.90;;;;;;5083122;28;20246;-41
2024/01/29 09:30:36;;;;;;;14.82;10.25;;;7.10;99.90;;;;;;5081244;28;20194;-40
2024/01/29 09:33:02;;;;;;;18.48;11.57;;;7.10;99.90;;;;;;5081419;28;20213;-47
2024/01/29 09:35:28;;;;;;;16.85;10.90;;;7.20;99.90;;;;;;5081316;28;20249;-45
2024/01/29 09:37:54;;;;;;;18.48;10.70;;;7.20;99.90;;;;;;5082618;28;20190;-48
2024/01/29 09:40:21;;;;;;;14.32;10.45;;;7.20;99.90;;;;;;5081748;28;20325;-42
2024/01/29 09:42:50;;;;;;;15.10;10.93;;;7.30;99.90;;;;;;5083559;28;20400;-47
2024/01/29 09:45:23;;;;;;;19.35;11.23;;;7.30;99.90;;;;;;5083065;28;20188;-43
2024/01/29 09:47:51;;;;;;;17.35;10.90;;;7.30;99.90;;;;;;5082084;28;20196;-42
2024/01/29 09:50:18;;;;;;;19.88;12.10;;;7.30;99.90;;;;;;5082804;28;20181;-43
2024/01/29 09:52:48;;;;;;;16.92;11.10;;;7.40;99.90;;;;;;5082333;28;20210;-47
2024/01/29 09:55:14;;;;;;;18.75;11.38;;;7.40;99.90;;;;;;5082830;28;20185;-43
2024/01/29 09:57:40;;;;;;;17.05;11.27;;;7.40;99.90;;;;;;5082211;28;20232;-43
2024/01/29 10:00:07;;;;;;;20.60;11.70;;;7.40;99.90;;;;;;5078380;28;20662;-43
2024/01/29 10:02:35;;;;;;;17.60;12.05;;;7.50;99.90;;;;;;5082229;28;20198;-43
2024/01/29 10:05:01;;;;;;;16.50;11.68;;;7.50;99.90;;;;;;5081260;28;20254;-42
2024/01/29 10:07:27;;;;;;;21.42;11.90;;;7.50;99.90;;;;;;5063963;28;20666;-43
2024/01/29 10:09:53;;;;;;;18.27;11.70;;;7.50;99.90;;;;;;5064444;28;21712;-43
2024/01/29 10:12:23;;;;;;;16.67;11.27;;;7.60;99.90;;;;;;5082278;28;20515;-43
2024/01/29 10:14:49;;;;;;;18.88;12.48;;;7.60;99.90;;;;;;5081720;28;20170;-46
2024/01/29 10:17:15;;;;;;;17.65;11.48;;;7.60;99.90;;;;;;5082596;28;20600;-44
2024/01/29 10:19:43;;;;;;;17.98;11.95;;;7.70;99.90;;;;;;5063443;28;20210;-45
2024/01/29 10:22:14;;;;;;;18.13;11.95;;;7.70;99.90;;;;;;5081282;28;20204;-43
2024/01/29 10:24:40;;;;;;;19.17;12.55;;;7.80;99.90;;;;;;5080261;28;20285;-44
2024/01/29 10:27:07;;;;;;;20.75;11.95;;;7.90;99.90;;;;;;5080869;28;20174;-46
2024/01/29 10:29:48;;;;;;;19.13;12.13;;;8.00;99.90;;;;;;5064272;28;20255;-40
2024/01/29 10:32:14;;;;;;;16.70;11.90;;;8.10;99.90;;;;;;5082116;28;20309;-46
2024/01/29 10:34:41;;;;;;;18.50;11.88;;;8.30;99.90;;;;;;5082160;28;20620;-42
2024/01/29 10:37:07;;;;;;;19.23;12.05;;;8.40;99.90;;;;;;5081587;28;20246;-43
2024/01/29 10:39:36;;;;;;;20.13;12.07;;;8.50;99.90;;;;;;5081121;28;20180;-42
2024/01/29 10:42:02;;;;;;;18.17;12.60;;;8.60;99.90;;;;;;5081816;28;20587;-45
2024/01/29 10:44:32;;;;;;;18.10;12.43;;;8.60;99.90;;;;;;5081264;28;20638;-42
2024/01/29 10:47:04;;;;;;;17.20;12.10;;;8.70;99.90;;;;;;5082157;28;20676;-46
2024/01/29 10:49:31;;;;;;;19.65;12.13;;;8.80;99.90;;;;;;5079179;28;20181;-43
2024/01/29 10:51:59;;;;;;;22.02;12.50;;;8.80;99.90;;;;;;5081047;28;20206;-44
2024/01/29 10:54:26;;;;;;;20.42;12.65;;;8.90;99.90;;;;;;5081574;28;21078;-46
2024/01/29 10:56:52;;;;;;;23.70;13.73;;;8.90;99.90;;;;;;5079521;28;20197;-41
2024/01/29 10:59:20;;;;;;;22.13;13.18;;;9.00;99.90;;;;;;5080127;28;20602;-43
2024/01/29 11:01:47;;;;;;;21.13;13.27;;;9.00;99.90;;;;;;5081254;28;20717;-38
2024/01/29 11:04:16;;;;;;;22.70;14.20;;;9.00;99.90;;;;;;5079334;28;20182;-44
2024/01/29 11:06:50;;;;;;;20.38;13.00;;;9.10;99.90;;;;;;5062906;28;20610;-47
2024/01/29 11:09:19;;;;;;;20.83;14.40;;;9.10;99.90;;;;;;5081075;28;20301;-43
2024/01/29 11:11:46;;;;;;;22.83;14.13;;;9.20;99.90;;;;;;5081231;28;20193;-41
2024/01/29 11:14:12;;;;;;;26.30;13.45;;;9.30;99.90;;;;;;5081141;28;20178;-40
2024/01/29 11:16:39;;;;;;;22.27;13.98;;;9.30;99.90;;;;;;5080582;28;20189;-40
2024/01/29 11:19:05;;;;;;;23.73;15.02;;;9.40;99.90;;;;;;5079572;28;20625;-46
2024/01/29 11:21:31;;;;;;;24.27;14.20;;;9.40;99.90;;;;;;5079452;28;20217;-41
2024/01/29 11:23:58;;;;;;;25.08;14.77;;;9.40;99.90;;;;;;5080524;28;20257;-41
2024/01/29 11:26:28;;;;;;;25.65;15.20;;;9.50;99.90;;;;;;5062357;28;20282;-47
2024/01/29 11:29:01;;;;;;;23.52;15.27;;;9.60;99.90;;;;;;5081041;28;20192;-42
2024/01/29 11:31:42;;;;;;;28.40;16.60;;;9.60;99.90;;;;;;5080188;28;20697;-41
2024/01/29 11:34:08;;;;;;;23.23;15.05;;;9.70;99.90;;;;;;5080590;28;20548;-43
2024/01/29 11:36:38;;;;;;;26.30;15.02;;;9.70;99.90;;;;;;5079138;28;20539;-40
2024/01/29 11:39:05;;;;;;;26.77;14.95;;;9.70;99.90;;;;;;5080315;28;20264;-40
2024/01/29 11:41:35;;;;;;;29.20;16.60;;;9.70;99.90;;;;;;5080528;28;20309;-41
2024/01/29 11:44:02;;;;;;;24.55;14.75;;;9.80;99.90;;;;;;5080905;28;20239;-43
2024/01/29 11:46:28;;;;;;;23.17;14.38;;;9.80;99.90;;;;;;5052162;28;20197;-44
2024/01/29 11:48:56;;;;;;;22.92;13.88;;;9.80;99.90;;;;;;5080787;28;20201;-39
2024/01/29 11:51:22;;;;;;;23.25;14.05;;;9.90;99.90;;;;;;5079178;28;20289;-40
2024/01/29 11:53:51;;;;;;;23.58;14.70;;;9.90;99.90;;;;;;5080662;28;20289;-38
2024/01/29 11:56:18;;;;;;;21.48;14.43;;;10.00;99.90;;;;;;5080775;28;20189;-45
2024/01/29 11:58:44;;;;;;;26.95;14.82;;;10.00;99.90;;;;;;5084493;28;20181;-42
2024/01/29 12:01:10;;;;;;;21.02;14.10;;;10.10;99.90;;;;;;5083433;28;20193;-40
2024/01/29 12:03:38;;;;;;;23.02;14.85;;;10.10;99.90;;;;;;5083292;28;20189;-39
2024/01/29 12:06:05;;;;;;;26.23;14.52;;;10.20;99.90;;;;;;5084346;28;20189;-41
2024/01/29 12:08:31;;;;;;;26.55;14.55;;;10.30;99.90;;;;;;5084275;28;20291;-42
2024/01/29 12:11:02;;;;;;;27.92;15.25;;;10.40;99.90;;;;;;5082995;28;20205;-43
2024/01/29 12:13:28;;;;;;;26.10;14.77;;;10.40;99.90;;;;;;5084456;28;20352;-43
2024/01/29 12:15:56;;;;;;;32.35;16.23;;;10.40;99.90;;;;;;5084116;28;20266;-42
2024/01/29 12:18:26;;;;;;;35.75;16.45;;;10.30;99.90;;;;;;5084181;28;20166;-40
2024/01/29 12:20:53;;;;;;;34.50;16.70;;;10.30;99.90;;;;;;5084284;28;20269;-43
2024/01/29 12:23:23;;;;;;;29.40;15.38;;;10.30;99.90;;;;;;5083789;28;20264;-41
2024/01/29 12:25:54;;;;;;;34.13;16.48;;;10.20;99.90;;;;;;5083292;28;20186;-44
2024/01/29 12:28:20;;;;;;;29.13;16.13;;;10.20;99.90;;;;;;5084256;28;20556;-45
2024/01/29 12:30:56;;;;;;;31.77;16.63;;;10.30;99.90;;;;;;5082889;28;20197;-41
2024/01/29 12:33:29;;;;;;;27.85;16.33;;;10.30;99.90;;;;;;5084152;28;20213;-40
2024/01/29 12:35:57;;;;;;;30.48;16.80;;;10.30;99.90;;;;;;5083193;28;20194;-41
2024/01/29 12:38:23;;;;;;;29.90;16.13;;;10.30;99.90;;;;;;5084046;28;20265;-39
2024/01/29 12:40:56;;;;;;;36.90;17.25;;;10.40;99.90;;;;;;5084305;28;20225;-42